createdAt,value
2023-04-02T01:24:30.637Z,2.68
2023-04-02T01:31:37.160Z,2.93
2023-04-02T01:35:12.722Z,2.90
2023-04-02T01:38:32.432Z,2.88
2023-04-02T01:41:37.508Z,2.90
2023-04-02T01:44:13.366Z,2.95
2023-04-02T01:46:59.248Z,2.96
2023-04-02T01:49:32.256Z,2.97
2023-04-02T01:52:04.308Z,2.76
2023-04-02T01:54:59.035Z,2.79
2023-04-02T01:58:47.595Z,2.81
2023-04-02T02:01:38.648Z,2.71
2023-04-02T02:04:15.765Z,2.85
2023-04-02T02:06:48.954Z,2.88
2023-04-02T02:09:26.314Z,2.82
2023-04-02T02:12:02.221Z,2.90
2023-04-02T02:14:35.138Z,2.90
2023-04-02T02:17:13.730Z,2.90
2023-04-02T02:19:51.179Z,2.83
2023-04-02T02:22:30.387Z,2.77
2023-04-02T02:25:05.703Z,2.77
2023-04-02T02:27:54.291Z,2.83
2023-04-02T02:30:30.900Z,2.90
2023-04-02T02:33:09.164Z,2.82
2023-04-02T02:35:52.283Z,2.89
2023-04-02T02:38:54.554Z,2.75
2023-04-02T02:41:33.772Z,2.61
2023-04-02T02:44:13.786Z,2.51
2023-04-02T02:46:49.388Z,2.52
2023-04-02T02:49:25.747Z,2.68
2023-04-02T02:52:04.008Z,2.50
2023-04-02T02:54:38.481Z,2.76
2023-04-02T03:00:51.783Z,2.81
2023-04-02T03:04:04.315Z,2.78
2023-04-02T03:07:26.608Z,2.78
2023-04-02T03:10:06.615Z,2.62
2023-04-02T03:12:47.615Z,2.64
2023-04-02T03:15:27.050Z,2.65
2023-04-02T03:18:04.144Z,2.73
2023-04-02T03:20:41.816Z,2.65
2023-04-02T03:23:21.434Z,2.84
2023-04-02T03:26:02.227Z,2.98
2023-04-02T03:28:37.928Z,2.78
2023-04-02T03:31:13.784Z,2.82
2023-04-02T03:33:49.581Z,2.88
2023-04-02T03:36:26.180Z,2.83
2023-04-02T03:39:08.868Z,2.82
2023-04-02T03:41:48.448Z,2.91
2023-04-02T03:44:26.562Z,2.99
2023-04-02T03:47:02.268Z,2.99
2023-04-02T03:49:39.890Z,2.81
2023-04-02T03:52:15.870Z,2.83
2023-04-02T03:54:54.196Z,2.79
2023-04-02T03:57:35.189Z,2.87
2023-04-02T04:00:18.399Z,2.92
2023-04-02T04:02:53.998Z,2.98
2023-04-02T04:05:32.345Z,2.91
2023-04-02T04:08:06.838Z,2.90
2023-04-02T04:10:39.458Z,2.93
2023-04-02T04:13:20.396Z,2.97
2023-04-02T04:15:58.267Z,2.96
2023-04-02T04:18:38.310Z,2.81
2023-04-02T04:21:19.257Z,2.95
2023-04-02T04:23:54.218Z,2.94
2023-04-02T04:26:35.445Z,2.94
2023-04-02T04:29:21.008Z,2.88
2023-04-02T04:31:56.118Z,2.76
2023-04-02T04:34:36.782Z,2.86
2023-04-02T04:37:11.790Z,2.77
2023-04-02T04:39:48.190Z,2.84
2023-04-02T04:42:24.142Z,2.90
2023-04-02T04:45:04.217Z,3.01
2023-04-02T04:47:41.928Z,3.12
2023-04-02T04:50:20.214Z,3.16
2023-04-02T04:52:52.969Z,3.03
2023-04-02T04:55:37.585Z,2.93
2023-04-02T04:58:21.640Z,3.04
2023-04-02T05:01:04.085Z,2.98
2023-04-02T05:03:46.093Z,3.00
2023-04-02T05:06:25.353Z,2.95
2023-04-02T05:09:00.850Z,3.03
2023-04-02T05:11:38.299Z,3.08
2023-04-02T05:14:21.198Z,3.09
2023-04-02T05:17:02.263Z,3.09
2023-04-02T05:19:41.327Z,3.17
2023-04-02T05:22:24.686Z,2.97
2023-04-02T05:25:23.456Z,2.98
2023-04-02T05:28:02.117Z,3.03
2023-04-02T05:30:55.958Z,2.99
2023-04-02T05:33:32.657Z,3.05
2023-04-02T05:36:09.122Z,3.02
2023-04-02T05:38:43.759Z,3.11
2023-04-02T05:41:27.356Z,3.10
2023-04-02T05:44:09.013Z,3.14
2023-04-02T05:46:49.543Z,3.19
2023-04-02T05:49:53.373Z,3.13
2023-04-02T05:52:31.841Z,3.14
2023-04-02T05:55:24.182Z,3.25
2023-04-02T06:00:56.258Z,3.45
2023-04-02T06:03:36.281Z,3.47
2023-04-02T06:06:19.813Z,3.45
2023-04-02T06:08:58.858Z,3.58
2023-04-02T06:11:35.329Z,3.51
2023-04-02T06:14:07.911Z,3.63
2023-04-02T06:16:39.705Z,3.43
2023-04-02T06:19:20.498Z,3.57
2023-04-02T06:22:01.637Z,3.71
2023-04-02T06:24:35.582Z,3.72
2023-04-02T06:27:09.570Z,3.97
2023-04-02T06:29:46.119Z,4.00
2023-04-02T06:32:18.051Z,4.19
2023-04-02T06:34:50.502Z,4.25
2023-04-02T06:37:31.924Z,4.24
2023-04-02T06:40:04.588Z,4.42
2023-04-02T06:42:40.913Z,4.66
2023-04-02T06:45:21.688Z,4.97
2023-04-02T06:47:55.902Z,5.05
2023-04-02T06:50:34.485Z,5.10
2023-04-02T06:53:12.255Z,5.26
2023-04-02T06:55:50.235Z,5.56
2023-04-02T06:58:23.307Z,5.83
2023-04-02T07:00:56.393Z,6.21
2023-04-02T07:03:32.053Z,7.12
2023-04-02T07:06:07.366Z,7.34
2023-04-02T07:08:42.136Z,6.98
2023-04-02T07:11:19.403Z,7.12
2023-04-02T07:13:53.122Z,6.70
2023-04-02T07:16:28.075Z,7.09
2023-04-02T07:19:01.176Z,6.54
2023-04-02T07:21:33.663Z,5.82
2023-04-02T07:24:08.785Z,5.59
2023-04-02T07:26:42.246Z,5.36
2023-04-02T07:29:20.368Z,5.42
2023-04-02T07:31:54.474Z,5.18
2023-04-02T07:34:26.489Z,5.32
2023-04-02T07:36:58.844Z,5.25
2023-04-02T07:40:03.897Z,4.96
2023-04-02T07:43:02.644Z,6.00
2023-04-02T07:45:35.061Z,6.36
2023-04-02T07:48:09.899Z,6.34
2023-04-02T07:50:42.269Z,6.10
2023-04-02T07:53:32.104Z,6.07
2023-04-02T07:56:08.182Z,6.00
2023-04-02T07:58:40.831Z,5.68
2023-04-02T08:01:21.356Z,5.38
2023-04-02T08:03:54.595Z,5.38
2023-04-02T08:06:27.918Z,5.40
2023-04-02T08:09:00.840Z,5.60
2023-04-02T08:11:35.497Z,5.47
2023-04-02T08:14:07.716Z,5.60
2023-04-02T08:16:54.330Z,5.30
2023-04-02T08:19:26.993Z,5.36
2023-04-02T08:21:58.969Z,5.39
2023-04-02T08:24:31.579Z,5.53
2023-04-02T08:27:05.990Z,5.27
2023-04-02T08:29:38.182Z,5.52
2023-04-02T08:32:11.943Z,5.94
2023-04-02T08:34:44.353Z,6.06
2023-04-02T08:37:17.111Z,5.97
2023-04-02T08:39:49.970Z,5.70
2023-04-02T08:42:32.454Z,5.68
2023-04-02T08:45:25.488Z,5.66
2023-04-02T08:48:03.683Z,5.69
2023-04-02T08:50:40.079Z,5.66
2023-04-02T08:53:19.575Z,5.77
2023-04-02T08:56:00.289Z,5.42
2023-04-02T08:58:44.862Z,5.37
2023-04-02T09:01:26.843Z,5.59
2023-04-02T09:04:03.686Z,5.66
2023-04-02T09:06:37.787Z,5.57
2023-04-02T09:09:12.128Z,5.59
2023-04-02T09:11:53.872Z,5.52
2023-04-02T09:14:39.318Z,5.51
2023-04-02T09:17:21.659Z,5.55
2023-04-02T09:19:59.579Z,5.54
2023-04-02T09:22:35.463Z,5.67
2023-04-02T09:25:15.917Z,5.75
2023-04-02T09:27:52.276Z,6.05
2023-04-02T09:30:39.380Z,6.43
2023-04-02T09:33:13.401Z,7.46
2023-04-02T09:35:59.641Z,8.52
2023-04-02T09:38:33.345Z,9.43
2023-04-02T09:41:07.851Z,9.96
2023-04-02T09:43:42.115Z,10.35
2023-04-02T09:46:26.397Z,11.66
2023-04-02T09:49:01.560Z,12.09
2023-04-02T09:51:37.105Z,12.32
2023-04-02T09:54:18.554Z,12.64
2023-04-02T09:57:06.331Z,11.67
2023-04-02T09:59:38.641Z,11.91
2023-04-02T10:02:28.164Z,11.68
2023-04-02T10:05:07.253Z,12.05
2023-04-02T10:07:43.423Z,12.78
2023-04-02T10:10:31.637Z,12.59
2023-04-02T10:13:06.301Z,12.94
2023-04-02T10:15:46.429Z,13.23
2023-04-02T10:18:31.809Z,13.35
2023-04-02T10:21:06.997Z,13.60
2023-04-02T10:23:38.736Z,13.47
2023-04-02T10:26:42.087Z,14.14
2023-04-02T10:29:50.949Z,14.13
2023-04-02T10:32:28.485Z,13.64
2023-04-02T10:35:07.921Z,11.98
2023-04-02T10:38:14.178Z,11.07
2023-04-02T10:40:51.614Z,9.92
2023-04-02T10:43:47.373Z,10.60
2023-04-02T10:46:26.746Z,10.26
2023-04-02T10:49:10.118Z,9.14
2023-04-02T10:51:49.452Z,9.88
2023-04-02T10:54:33.713Z,10.74
2023-04-02T10:57:13.274Z,10.71
2023-04-02T10:59:50.333Z,10.41
2023-04-02T11:02:35.437Z,10.54
2023-04-02T11:05:19.316Z,10.36
2023-04-02T11:08:06.090Z,10.41
2023-04-02T11:10:42.552Z,10.23
2023-04-02T11:13:21.931Z,9.87
2023-04-02T11:15:54.830Z,9.22
2023-04-02T11:18:37.049Z,8.76
2023-04-02T11:21:11.271Z,8.43
2023-04-02T11:24:00.310Z,8.27
2023-04-02T11:26:41.774Z,7.85
2023-04-02T11:29:26.559Z,8.10
2023-04-02T11:32:31.939Z,8.14
2023-04-02T11:35:41.837Z,7.92
2023-04-02T11:38:44.134Z,7.92
2023-04-02T11:41:53.844Z,8.56
2023-04-02T11:44:27.632Z,9.45
2023-04-02T11:47:24.749Z,10.51
2023-04-02T11:50:05.512Z,9.81
2023-04-02T11:52:41.714Z,9.92
2023-04-02T11:55:31.275Z,10.54
2023-04-02T11:58:42.091Z,9.92
2023-04-02T12:01:33.291Z,9.81
2023-04-02T12:04:30.072Z,10.22
2023-04-02T12:07:35.388Z,10.33
2023-04-02T12:10:19.772Z,10.14
2023-04-02T12:12:53.752Z,9.74
2023-04-02T12:15:49.505Z,9.33
2023-04-02T12:18:26.547Z,9.05
2023-04-02T12:21:00.836Z,8.71
2023-04-02T12:23:35.613Z,8.74
2023-04-02T12:26:09.957Z,8.78
2023-04-02T12:28:42.857Z,8.89
2023-04-02T12:31:30.955Z,8.75
2023-04-02T12:34:03.726Z,8.52
2023-04-02T12:36:36.608Z,8.46
2023-04-02T12:39:20.989Z,8.56
2023-04-02T12:41:53.348Z,8.71
2023-04-02T12:44:27.889Z,8.74
2023-04-02T12:47:03.115Z,8.95
2023-04-02T12:49:40.787Z,8.86
2023-04-02T12:52:16.135Z,8.86
2023-04-02T12:54:51.292Z,8.67
2023-04-02T12:57:38.623Z,8.40
2023-04-02T13:00:58.706Z,8.37
2023-04-02T13:03:34.232Z,8.25
2023-04-02T13:06:07.672Z,8.53
2023-04-02T13:08:44.657Z,8.86
2023-04-02T13:11:17.090Z,9.02
2023-04-02T13:13:51.054Z,9.29
2023-04-02T13:16:41.592Z,9.09
2023-04-02T13:19:36.232Z,8.85
2023-04-02T13:22:36.453Z,8.51
2023-04-02T13:25:08.899Z,8.31
2023-04-02T13:28:41.515Z,8.35
2023-04-02T13:31:51.604Z,8.28
2023-04-02T13:34:24.113Z,8.07
2023-04-02T13:36:56.157Z,8.30
2023-04-02T13:39:31.310Z,8.27
2023-04-02T13:42:06.895Z,8.44
2023-04-02T13:44:40.311Z,8.46
2023-04-02T13:47:17.410Z,8.30
2023-04-02T13:49:49.791Z,8.62
2023-04-02T13:52:21.671Z,8.56
2023-04-02T13:55:01.734Z,8.30
2023-04-02T13:57:35.009Z,8.33
2023-04-02T14:00:08.175Z,8.61
2023-04-02T14:02:58.129Z,8.58
2023-04-02T14:09:25.296Z,9.06
2023-04-02T14:12:21.660Z,8.95
2023-04-02T14:15:20.411Z,8.29
2023-04-02T14:18:19.961Z,8.02
2023-04-02T14:21:08.853Z,8.17
2023-04-02T14:23:54.190Z,8.32
2023-04-02T14:26:39.889Z,8.65
2023-04-02T14:29:26.982Z,8.26
2023-04-02T14:40:42.710Z,8.16
2023-04-02T14:43:19.722Z,8.28
2023-04-02T14:46:23.092Z,8.25
2023-04-02T14:49:10.354Z,8.16
2023-04-02T14:51:47.010Z,8.21
2023-04-02T14:54:35.335Z,8.16
2023-04-02T14:57:17.378Z,7.95
2023-04-02T15:00:12.148Z,7.89
2023-04-02T15:02:51.284Z,7.83
2023-04-02T15:05:54.249Z,7.81
2023-04-02T15:08:29.369Z,7.78
2023-04-02T15:11:08.534Z,7.58
2023-04-02T15:14:07.356Z,7.57
2023-04-02T15:17:09.856Z,7.48
2023-04-02T15:19:44.692Z,7.72
2023-04-02T15:22:56.189Z,7.82
2023-04-02T15:25:54.107Z,7.73
2023-04-02T15:28:32.528Z,7.65
2023-04-02T15:31:10.138Z,7.67
2023-04-02T15:33:48.335Z,7.05
2023-04-02T15:36:50.847Z,6.74
2023-04-02T15:41:11.248Z,6.98
2023-04-02T15:44:05.333Z,6.86
2023-04-02T15:46:49.086Z,6.72
2023-04-02T15:50:24.028Z,6.82
2023-04-02T15:53:48.913Z,7.16
2023-04-02T15:56:28.837Z,7.10
2023-04-02T15:59:34.877Z,6.75
2023-04-02T16:06:56.515Z,6.37
2023-04-02T16:10:43.022Z,6.47
2023-04-02T16:14:25.080Z,6.71
2023-04-02T16:17:17.565Z,6.80
2023-04-02T16:20:00.313Z,6.71
2023-04-02T16:27:00.953Z,6.28
2023-04-02T16:29:58.025Z,6.25
2023-04-02T16:32:56.254Z,6.01
2023-04-02T16:35:43.154Z,5.90
2023-04-02T16:39:34.581Z,6.14
2023-04-02T16:42:26.032Z,5.91
2023-04-02T16:45:56.833Z,6.01
2023-04-02T16:48:44.526Z,6.13
2023-04-02T16:51:33.212Z,6.06
2023-04-02T16:54:22.778Z,6.09
2023-04-02T16:57:13.632Z,6.03
2023-04-02T17:00:15.243Z,5.92
2023-04-02T17:03:35.701Z,5.65
2023-04-02T17:06:19.802Z,5.33
2023-04-02T17:09:00.713Z,5.31
2023-04-02T17:11:40.432Z,5.55
2023-04-02T17:14:37.805Z,5.42
2023-04-02T17:17:15.287Z,5.27
2023-04-02T17:20:10.394Z,5.02
2023-04-02T17:22:49.990Z,5.08
2023-04-02T17:25:27.834Z,4.88
2023-04-02T17:34:51.957Z,4.60
2023-04-02T17:37:34.701Z,4.59
2023-04-02T17:40:25.041Z,4.64
2023-04-02T17:44:15.211Z,4.69
2023-04-02T17:47:00.701Z,4.36
2023-04-02T17:50:12.333Z,4.31
2023-04-02T17:52:49.395Z,4.29
2023-04-02T17:55:41.072Z,4.36
2023-04-02T17:58:28.517Z,4.14
2023-04-02T18:01:10.656Z,4.14
2023-04-02T18:03:56.129Z,3.95
2023-04-02T18:06:58.738Z,3.99
2023-04-02T18:14:22.083Z,3.85
2023-04-02T18:17:04.674Z,3.72
2023-04-02T18:19:47.191Z,3.71
2023-04-02T18:22:26.712Z,3.68
2023-04-02T18:25:39.852Z,3.85
2023-04-02T18:28:47.994Z,3.74
2023-04-02T18:31:35.364Z,3.56
2023-04-02T18:34:45.411Z,3.57
2023-04-02T18:41:01.604Z,3.41
2023-04-02T18:43:46.511Z,3.44
2023-04-02T18:46:39.553Z,3.42
2023-04-02T18:50:39.884Z,3.26
2023-04-02T18:53:16.306Z,3.09
2023-04-02T18:55:53.627Z,3.16
2023-04-02T18:58:32.150Z,3.11
2023-04-02T19:01:24.685Z,3.12
2023-04-02T19:04:05.161Z,3.07
2023-04-02T19:06:41.281Z,2.82
2023-04-02T19:09:29.067Z,2.98
2023-04-02T19:12:01.410Z,3.05
2023-04-02T19:15:49.654Z,3.03
2023-04-02T19:26:45.628Z,2.81
2023-04-02T19:29:29.632Z,2.78
2023-04-02T19:32:10.310Z,2.76
2023-04-02T19:34:51.275Z,2.74
2023-04-02T19:37:59.949Z,2.72
2023-04-02T19:40:41.534Z,2.71
2023-04-02T19:43:16.869Z,2.60
2023-04-02T19:45:53.908Z,2.66
2023-04-02T19:48:44.768Z,2.52
2023-04-02T19:51:17.835Z,2.42
2023-04-02T19:54:29.814Z,2.58
2023-04-02T19:57:22.627Z,2.47
2023-04-02T19:59:57.489Z,2.44
2023-04-02T20:02:29.988Z,2.25
2023-04-02T20:06:10.789Z,2.36
2023-04-02T20:11:51.139Z,2.22
2023-04-02T20:14:28.649Z,2.09
2023-04-02T20:17:40.380Z,2.16
2023-04-02T20:20:16.611Z,2.00
2023-04-02T20:22:48.960Z,2.15
2023-04-02T20:25:21.174Z,2.21
2023-04-02T20:27:53.273Z,2.02
2023-04-02T20:30:25.633Z,2.08
2023-04-02T20:33:02.205Z,2.00
2023-04-02T20:35:41.535Z,1.95
2023-04-02T20:38:21.613Z,2.04
2023-04-02T20:40:57.794Z,2.21
2023-04-02T20:43:30.241Z,2.13
2023-04-02T20:46:04.886Z,1.98
2023-04-02T20:48:40.146Z,1.97
2023-04-02T20:51:15.358Z,2.00
2023-04-02T20:53:48.100Z,2.10
2023-04-02T20:56:23.942Z,1.89
2023-04-02T20:58:56.320Z,1.90
2023-04-02T21:01:30.810Z,1.82
2023-04-02T21:04:08.607Z,1.83
2023-04-02T21:06:42.792Z,1.88
2023-04-02T21:09:21.659Z,1.72
2023-04-02T21:11:54.105Z,1.87
2023-04-02T21:14:25.899Z,1.76
2023-04-02T21:16:58.238Z,1.82
2023-04-02T21:19:33.152Z,1.75
2023-04-02T21:22:05.814Z,1.75
2023-04-02T21:24:38.162Z,1.67
2023-04-02T21:27:26.525Z,1.69
2023-04-02T21:29:58.459Z,1.51
2023-04-02T21:32:30.585Z,1.50
2023-04-02T21:35:05.076Z,1.35
2023-04-02T21:37:37.296Z,1.54
2023-04-02T21:40:10.673Z,1.46
2023-04-02T21:42:49.946Z,1.45
2023-04-02T21:45:21.888Z,1.52
2023-04-02T21:47:54.185Z,1.35
2023-04-02T21:50:28.827Z,1.49
2023-04-02T21:53:01.383Z,1.48
2023-04-02T21:55:33.549Z,1.39
2023-04-02T21:58:06.070Z,1.32
2023-04-02T22:00:38.643Z,1.35
2023-04-02T22:03:13.653Z,1.45
2023-04-02T22:05:53.291Z,1.44
2023-04-02T22:08:25.415Z,1.36
2023-04-02T22:11:00.117Z,1.38
2023-04-02T22:13:32.462Z,1.30
2023-04-02T22:16:06.875Z,1.27
2023-04-02T22:18:39.239Z,1.27
2023-04-02T22:21:14.573Z,1.32
2023-04-02T22:23:47.733Z,1.07
2023-04-02T22:26:21.092Z,1.17
2023-04-02T22:28:53.349Z,1.27
2023-04-02T22:31:26.752Z,1.25
2023-04-02T22:34:00.569Z,1.26
2023-04-02T22:36:36.243Z,1.13
2023-04-02T22:39:12.633Z,1.05
2023-04-02T22:41:44.462Z,1.19
2023-04-02T22:44:18.366Z,1.14
2023-04-02T22:46:50.143Z,1.16
2023-04-02T22:49:22.261Z,1.16
2023-04-02T22:51:56.596Z,1.17
2023-04-02T22:54:28.716Z,1.11
2023-04-02T22:57:00.493Z,1.01
2023-04-02T22:59:32.604Z,1.02
2023-04-02T23:02:04.395Z,1.11
2023-04-02T23:04:37.184Z,1.02
2023-04-02T23:07:12.109Z,1.04
2023-04-02T23:09:44.278Z,1.24
2023-04-02T23:12:16.237Z,1.21
2023-04-02T23:14:48.510Z,1.17
2023-04-02T23:17:20.889Z,1.12
2023-04-02T23:19:53.149Z,0.98
2023-04-02T23:22:27.568Z,1.03
2023-04-02T23:24:59.966Z,0.96
2023-04-02T23:27:46.338Z,1.07
2023-04-02T23:30:18.713Z,1.08
2023-04-02T23:32:50.553Z,1.13
2023-04-02T23:35:22.711Z,1.06
2023-04-02T23:37:59.715Z,0.91
2023-04-02T23:40:31.890Z,1.02
2023-04-02T23:43:03.719Z,0.90
2023-04-02T23:45:35.882Z,0.99
2023-04-02T23:48:08.205Z,1.00
2023-04-02T23:50:40.310Z,1.01
2023-04-02T23:53:15.135Z,0.99
2023-04-02T23:55:47.532Z,1.00
2023-04-02T23:58:19.181Z,0.96
